sensor_id;sensor_type;location;lat;lon;timestamp;pressure;altitude;pressure_sealevel;temperature;humidity
9831;BME280;4954;48.476;8.168;2024-02-16T00:01:57;98255.13;;;9.04;nan
9831;BME280;4954;48.476;8.168;2024-02-16T00:04:25;98254.31;;;9.06;nan
9831;BME280;4954;48.476;8.168;2024-02-16T00:06:52;98255.97;;;9.04;nan
9831;BME280;4954;48.476;8.168;2024-02-16T00:09:19;98249.25;;;9.06;nan
9831;BME280;4954;48.476;8.168;2024-02-16T00:11:46;98252.69;;;9.11;nan
9831;BME280;4954;48.476;8.168;2024-02-16T00:14:13;98251.88;;;9.15;nan
9831;BME280;4954;48.476;8.168;2024-02-16T00:16:40;98245.94;;;9.13;nan
9831;BME280;4954;48.476;8.168;2024-02-16T00:19:07;98245.94;;;9.13;nan
9831;BME280;4954;48.476;8.168;2024-02-16T00:21:35;98250.16;;;9.14;nan
9831;BME280;4954;48.476;8.168;2024-02-16T00:24:05;98256.13;;;9.16;nan
9831;BME280;4954;48.476;8.168;2024-02-16T00:26:32;98261.22;;;9.19;nan
9831;BME280;4954;48.476;8.168;2024-02-16T00:28:59;98254.50;;;9.23;nan
9831;BME280;4954;48.476;8.168;2024-02-16T00:31:26;98252.00;;;9.26;nan
9831;BME280;4954;48.476;8.168;2024-02-16T00:33:53;98255.44;;;9.29;nan
9831;BME280;4954;48.476;8.168;2024-02-16T00:36:20;98255.44;;;9.29;nan
9831;BME280;4954;48.476;8.168;2024-02-16T00:38:48;98245.25;;;9.28;nan
9831;BME280;4954;48.476;8.168;2024-02-16T00:41:19;98257.09;;;9.27;nan
9831;BME280;4954;48.476;8.168;2024-02-16T00:43:48;98251.16;;;9.27;nan
9831;BME280;4954;48.476;8.168;2024-02-16T00:46:16;98259.59;;;9.24;nan
9831;BME280;4954;48.476;8.168;2024-02-16T00:48:43;98250.31;;;9.25;nan
9831;BME280;4954;48.476;8.168;2024-02-16T00:51:10;98242.59;;;9.17;nan
9831;BME280;4954;48.476;8.168;2024-02-16T00:53:38;98244.25;;;9.12;nan
9831;BME280;4954;48.476;8.168;2024-02-16T00:56:10;98239.13;;;9.09;nan
9831;BME280;4954;48.476;8.168;2024-02-16T00:58:40;98239.06;;;9.03;nan
9831;BME280;4954;48.476;8.168;2024-02-16T01:01:08;98231.44;;;9.03;nan
9831;BME280;4954;48.476;8.168;2024-02-16T01:03:36;98240.69;;;8.98;nan
9831;BME280;4954;48.476;8.168;2024-02-16T01:06:04;98238.06;;;8.94;nan
9831;BME280;4954;48.476;8.168;2024-02-16T01:08:32;98235.47;;;8.89;nan
9831;BME280;4954;48.476;8.168;2024-02-16T01:10:59;98244.78;;;8.87;nan
9831;BME280;4954;48.476;8.168;2024-02-16T01:13:27;98252.31;;;8.84;nan
9831;BME280;4954;48.476;8.168;2024-02-16T01:15:54;98256.53;;;8.82;nan
9831;BME280;4954;48.476;8.168;2024-02-16T01:18:21;98248.84;;;8.78;nan
9831;BME280;4954;48.476;8.168;2024-02-16T01:20:48;98258.13;;;8.74;nan
9831;BME280;4954;48.476;8.168;2024-02-16T01:23:15;98263.16;;;8.73;nan
9831;BME280;4954;48.476;8.168;2024-02-16T01:25:42;98256.34;;;8.70;nan
9831;BME280;4954;48.476;8.168;2024-02-16T01:28:09;98264.75;;;8.65;nan
9831;BME280;4954;48.476;8.168;2024-02-16T01:30:38;98255.38;;;8.59;nan
9831;BME280;4954;48.476;8.168;2024-02-16T01:33:05;98252.75;;;8.53;nan
9831;BME280;4954;48.476;8.168;2024-02-16T01:35:33;98259.47;;;8.50;nan
9831;BME280;4954;48.476;8.168;2024-02-16T01:38:01;98253.56;;;8.51;nan
9831;BME280;4954;48.476;8.168;2024-02-16T01:40:29;98251.84;;;8.51;nan
9831;BME280;4954;48.476;8.168;2024-02-16T01:42:56;98251.06;;;8.52;nan
9831;BME280;4954;48.476;8.168;2024-02-16T01:45:23;98248.53;;;8.55;nan
9831;BME280;4954;48.476;8.168;2024-02-16T01:47:53;98251.88;;;8.53;nan
9831;BME280;4954;48.476;8.168;2024-02-16T01:50:21;98257.88;;;8.58;nan
9831;BME280;4954;48.476;8.168;2024-02-16T01:52:49;98248.63;;;8.60;nan
9831;BME280;4954;48.476;8.168;2024-02-16T01:55:16;98254.59;;;8.66;nan
9831;BME280;4954;48.476;8.168;2024-02-16T01:57:44;98249.63;;;8.71;nan
9831;BME280;4954;48.476;8.168;2024-02-16T02:00:15;98252.22;;;8.77;nan
9831;BME280;4954;48.476;8.168;2024-02-16T02:02:45;98249.75;;;8.80;nan
9831;BME280;4954;48.476;8.168;2024-02-16T02:05:14;98259.88;;;8.81;nan
9831;BME280;4954;48.476;8.168;2024-02-16T02:07:41;98247.25;;;8.84;nan
9831;BME280;4954;48.476;8.168;2024-02-16T02:10:09;98254.00;;;8.82;nan
9831;BME280;4954;48.476;8.168;2024-02-16T02:12:38;98244.66;;;8.81;nan
9831;BME280;4954;48.476;8.168;2024-02-16T02:15:06;98241.28;;;8.81;nan
9831;BME280;4954;48.476;8.168;2024-02-16T02:17:34;98248.03;;;8.77;nan
9831;BME280;4954;48.476;8.168;2024-02-16T02:20:01;98237.88;;;8.77;nan
9831;BME280;4954;48.476;8.168;2024-02-16T02:22:30;98240.44;;;8.80;nan
9831;BME280;4954;48.476;8.168;2024-02-16T02:24:57;98237.91;;;8.82;nan
9831;BME280;4954;48.476;8.168;2024-02-16T02:27:25;98229.50;;;8.84;nan
9831;BME280;4954;48.476;8.168;2024-02-16T02:29:52;98236.28;;;8.85;nan
9831;BME280;4954;48.476;8.168;2024-02-16T02:32:18;98221.91;;;8.86;nan
9831;BME280;4954;48.476;8.168;2024-02-16T02:34:46;98231.16;;;8.84;nan
9831;BME280;4954;48.476;8.168;2024-02-16T02:37:13;98228.66;;;8.85;nan
9831;BME280;4954;48.476;8.168;2024-02-16T02:39:41;98227.81;;;8.86;nan
9831;BME280;4954;48.476;8.168;2024-02-16T02:42:09;98227.88;;;8.89;nan
9831;BME280;4954;48.476;8.168;2024-02-16T02:44:36;98232.09;;;8.90;nan
9831;BME280;4954;48.476;8.168;2024-02-16T02:47:03;98226.16;;;8.88;nan
9831;BME280;4954;48.476;8.168;2024-02-16T02:49:30;98217.69;;;8.85;nan
9831;BME280;4954;48.476;8.168;2024-02-16T02:51:58;98226.09;;;8.84;nan
9831;BME280;4954;48.476;8.168;2024-02-16T02:54:25;98220.22;;;8.85;nan
9831;BME280;4954;48.476;8.168;2024-02-16T02:56:53;98215.97;;;8.85;nan
9831;BME280;4954;48.476;8.168;2024-02-16T02:59:20;98210.88;;;8.84;nan
9831;BME280;4954;48.476;8.168;2024-02-16T03:01:47;98214.28;;;8.84;nan
9831;BME280;4954;48.476;8.168;2024-02-16T03:04:14;98218.53;;;8.87;nan
9831;BME280;4954;48.476;8.168;2024-02-16T03:06:41;98215.19;;;8.89;nan
9831;BME280;4954;48.476;8.168;2024-02-16T03:09:07;98206.72;;;8.90;nan
9831;BME280;4954;48.476;8.168;2024-02-16T03:11:34;98203.41;;;8.94;nan
9831;BME280;4954;48.476;8.168;2024-02-16T03:14:03;98211.84;;;8.93;nan
9831;BME280;4954;48.476;8.168;2024-02-16T03:16:31;98216.88;;;8.87;nan
9831;BME280;4954;48.476;8.168;2024-02-16T03:18:58;98210.09;;;8.89;nan
9831;BME280;4954;48.476;8.168;2024-02-16T03:21:25;98218.59;;;8.90;nan
9831;BME280;4954;48.476;8.168;2024-02-16T03:23:52;98218.56;;;8.91;nan
9831;BME280;4954;48.476;8.168;2024-02-16T03:26:20;98217.78;;;8.95;nan
9831;BME280;4954;48.476;8.168;2024-02-16T03:28:47;98216.94;;;8.93;nan
9831;BME280;4954;48.476;8.168;2024-02-16T03:31:18;98216.91;;;8.92;nan
9831;BME280;4954;48.476;8.168;2024-02-16T03:33:46;98218.56;;;8.91;nan
9831;BME280;4954;48.476;8.168;2024-02-16T03:36:13;98216.00;;;8.87;nan
9831;BME280;4954;48.476;8.168;2024-02-16T03:38:43;98211.78;;;8.87;nan
9831;BME280;4954;48.476;8.168;2024-02-16T03:41:13;98207.53;;;8.85;nan
9831;BME280;4954;48.476;8.168;2024-02-16T03:43:41;98214.22;;;8.81;nan
9831;BME280;4954;48.476;8.168;2024-02-16T03:46:08;98218.38;;;8.76;nan
9831;BME280;4954;48.476;8.168;2024-02-16T03:48:38;98212.50;;;8.77;nan
9831;BME280;4954;48.476;8.168;2024-02-16T03:51:06;98221.81;;;8.78;nan
9831;BME280;4954;48.476;8.168;2024-02-16T03:53:33;98218.44;;;8.79;nan
9831;BME280;4954;48.476;8.168;2024-02-16T03:56:00;98216.66;;;8.74;nan
9831;BME280;4954;48.476;8.168;2024-02-16T03:58:27;98225.03;;;8.67;nan
9831;BME280;4954;48.476;8.168;2024-02-16T04:00:54;98220.75;;;8.63;nan
9831;BME280;4954;48.476;8.168;2024-02-16T04:03:22;98207.25;;;8.65;nan
9831;BME280;4954;48.476;8.168;2024-02-16T04:05:50;98211.41;;;8.60;nan
9831;BME280;4954;48.476;8.168;2024-02-16T04:08:18;98227.41;;;8.56;nan
9831;BME280;4954;48.476;8.168;2024-02-16T04:10:45;98220.59;;;8.51;nan
9831;BME280;4954;48.476;8.168;2024-02-16T04:13:12;98213.81;;;8.51;nan
9831;BME280;4954;48.476;8.168;2024-02-16T04:15:39;98227.31;;;8.49;nan
9831;BME280;4954;48.476;8.168;2024-02-16T04:18:07;98216.34;;;8.48;nan
9831;BME280;4954;48.476;8.168;2024-02-16T04:20:34;98222.25;;;8.50;nan
9831;BME280;4954;48.476;8.168;2024-02-16T04:23:03;98227.28;;;8.46;nan
9831;BME280;4954;48.476;8.168;2024-02-16T04:25:30;98230.56;;;8.40;nan
9831;BME280;4954;48.476;8.168;2024-02-16T04:27:57;98227.22;;;8.43;nan
9831;BME280;4954;48.476;8.168;2024-02-16T04:30:24;98226.34;;;8.39;nan
9831;BME280;4954;48.476;8.168;2024-02-16T04:32:51;98229.66;;;8.35;nan
9831;BME280;4954;48.476;8.168;2024-02-16T04:35:18;98234.69;;;8.32;nan
9831;BME280;4954;48.476;8.168;2024-02-16T04:37:45;98240.59;;;8.33;nan
9831;BME280;4954;48.476;8.168;2024-02-16T04:40:13;98225.41;;;8.33;nan
9831;BME280;4954;48.476;8.168;2024-02-16T04:42:40;98245.63;;;8.30;nan
9831;BME280;4954;48.476;8.168;2024-02-16T04:45:11;98237.94;;;8.25;nan
9831;BME280;4954;48.476;8.168;2024-02-16T04:47:39;98237.94;;;8.25;nan
9831;BME280;4954;48.476;8.168;2024-02-16T04:50:07;98237.09;;;8.25;nan
9831;BME280;4954;48.476;8.168;2024-02-16T04:52:36;98235.34;;;8.22;nan
9831;BME280;4954;48.476;8.168;2024-02-16T04:55:06;98235.41;;;8.25;nan
9831;BME280;4954;48.476;8.168;2024-02-16T04:57:35;98224.44;;;8.26;nan
9831;BME280;4954;48.476;8.168;2024-02-16T05:00:03;98222.72;;;8.24;nan
9831;BME280;4954;48.476;8.168;2024-02-16T05:02:31;98239.69;;;8.28;nan
9831;BME280;4954;48.476;8.168;2024-02-16T05:04:58;98212.75;;;8.34;nan
9831;BME280;4954;48.476;8.168;2024-02-16T05:07:25;98234.09;;;8.48;nan
9831;BME280;4954;48.476;8.168;2024-02-16T05:09:51;98236.75;;;8.57;nan
9831;BME280;4954;48.476;8.168;2024-02-16T05:12:23;98233.41;;;8.60;nan
9831;BME280;4954;48.476;8.168;2024-02-16T05:14:51;98226.69;;;8.63;nan
9831;BME280;4954;48.476;8.168;2024-02-16T05:17:19;98246.94;;;8.62;nan
9831;BME280;4954;48.476;8.168;2024-02-16T05:19:47;98246.13;;;8.63;nan
9831;BME280;4954;48.476;8.168;2024-02-16T05:22:15;98245.31;;;8.65;nan
9831;BME280;4954;48.476;8.168;2024-02-16T05:24:43;98247.88;;;8.67;nan
9831;BME280;4954;48.476;8.168;2024-02-16T05:27:11;98234.34;;;8.68;nan
9831;BME280;4954;48.476;8.168;2024-02-16T05:29:37;98236.09;;;8.72;nan
9831;BME280;4954;48.476;8.168;2024-02-16T05:32:06;98251.25;;;8.67;nan
9831;BME280;4954;48.476;8.168;2024-02-16T05:34:33;98233.47;;;8.64;nan
9831;BME280;4954;48.476;8.168;2024-02-16T05:37:04;98244.47;;;8.66;nan
9831;BME280;4954;48.476;8.168;2024-02-16T05:39:32;98241.13;;;8.67;nan
9831;BME280;4954;48.476;8.168;2024-02-16T05:42:01;98247.00;;;8.66;nan
9831;BME280;4954;48.476;8.168;2024-02-16T05:44:28;98243.66;;;8.69;nan
9831;BME280;4954;48.476;8.168;2024-02-16T05:46:58;98242.91;;;8.76;nan
9831;BME280;4954;48.476;8.168;2024-02-16T05:49:26;98244.63;;;8.77;nan
9831;BME280;4954;48.476;8.168;2024-02-16T05:51:53;98253.13;;;8.80;nan
9831;BME280;4954;48.476;8.168;2024-02-16T05:54:38;98249.81;;;8.86;nan
9831;BME280;4954;48.476;8.168;2024-02-16T05:57:05;98257.47;;;8.87;nan
9831;BME280;4954;48.476;8.168;2024-02-16T05:59:34;98252.31;;;8.84;nan
9831;BME280;4954;48.476;8.168;2024-02-16T06:02:01;98262.53;;;8.87;nan
9831;BME280;4954;48.476;8.168;2024-02-16T06:04:35;98265.03;;;8.86;nan
9831;BME280;4954;48.476;8.168;2024-02-16T06:07:13;98258.28;;;8.88;nan
9831;BME280;4954;48.476;8.168;2024-02-16T06:09:47;98258.25;;;8.86;nan
9831;BME280;4954;48.476;8.168;2024-02-16T06:12:14;98276.84;;;8.82;nan
9831;BME280;4954;48.476;8.168;2024-02-16T06:14:41;98265.81;;;8.80;nan
9831;BME280;4954;48.476;8.168;2024-02-16T06:17:45;98269.19;;;8.79;nan
9831;BME280;4954;48.476;8.168;2024-02-16T06:20:10;98282.72;;;8.81;nan
9831;BME280;4954;48.476;8.168;2024-02-16T06:22:42;98278.50;;;8.82;nan
9831;BME280;4954;48.476;8.168;2024-02-16T06:25:14;98281.03;;;8.80;nan
9831;BME280;4954;48.476;8.168;2024-02-16T06:27:42;98281.00;;;8.79;nan
9831;BME280;4954;48.476;8.168;2024-02-16T06:30:09;98274.25;;;8.79;nan
9831;BME280;4954;48.476;8.168;2024-02-16T06:32:39;98288.69;;;8.83;nan
9831;BME280;4954;48.476;8.168;2024-02-16T06:35:07;98294.66;;;8.87;nan
9831;BME280;4954;48.476;8.168;2024-02-16T06:37:41;98296.41;;;8.91;nan
9831;BME280;4954;48.476;8.168;2024-02-16T06:40:31;98294.72;;;8.90;nan
9831;BME280;4954;48.476;8.168;2024-02-16T06:42:58;98304.91;;;8.94;nan
9831;BME280;4954;48.476;8.168;2024-02-16T06:45:40;98303.28;;;8.99;nan
9831;BME280;4954;48.476;8.168;2024-02-16T06:48:07;98299.19;;;9.10;nan
9831;BME280;4954;48.476;8.168;2024-02-16T06:50:35;98302.03;;;9.34;nan
9831;BME280;4954;48.476;8.168;2024-02-16T06:53:11;98303.91;;;9.49;nan
9831;BME280;4954;48.476;8.168;2024-02-16T06:55:38;98308.19;;;9.51;nan
9831;BME280;4954;48.476;8.168;2024-02-16T06:58:05;98308.19;;;9.51;nan
9831;BME280;4954;48.476;8.168;2024-02-16T07:00:32;98308.25;;;9.57;nan
9831;BME280;4954;48.476;8.168;2024-02-16T07:03:00;98312.56;;;9.63;nan
9831;BME280;4954;48.476;8.168;2024-02-16T07:05:27;98320.94;;;9.57;nan
9831;BME280;4954;48.476;8.168;2024-02-16T07:08:21;98315.94;;;9.63;nan
9831;BME280;4954;48.476;8.168;2024-02-16T07:10:54;98325.25;;;9.63;nan
9831;BME280;4954;48.476;8.168;2024-02-16T07:13:22;98326.09;;;9.63;nan
9831;BME280;4954;48.476;8.168;2024-02-16T07:15:49;98337.09;;;9.62;nan
9831;BME280;4954;48.476;8.168;2024-02-16T07:18:20;98330.25;;;9.57;nan
9831;BME280;4954;48.476;8.168;2024-02-16T07:20:56;98333.63;;;9.56;nan
9831;BME280;4954;48.476;8.168;2024-02-16T07:23:25;98323.50;;;9.59;nan
9831;BME280;4954;48.476;8.168;2024-02-16T07:26:01;98343.81;;;9.57;nan
9831;BME280;4954;48.476;8.168;2024-02-16T07:28:32;98337.94;;;9.61;nan
9831;BME280;4954;48.476;8.168;2024-02-16T07:31:00;98336.31;;;9.69;nan
9831;BME280;4954;48.476;8.168;2024-02-16T07:33:26;98339.84;;;9.80;nan
9831;BME280;4954;48.476;8.168;2024-02-16T07:35:53;98343.25;;;9.84;nan
9831;BME280;4954;48.476;8.168;2024-02-16T07:38:21;98336.50;;;9.87;nan
9831;BME280;4954;48.476;8.168;2024-02-16T07:40:59;98341.72;;;9.99;nan
9831;BME280;4954;48.476;8.168;2024-02-16T07:43:27;98341.91;;;10.14;nan
9831;BME280;4954;48.476;8.168;2024-02-16T07:48:52;98340.41;;;10.34;nan
9831;BME280;4954;48.476;8.168;2024-02-16T07:51:22;98338.81;;;10.47;nan
9831;BME280;4954;48.476;8.168;2024-02-16T07:53:58;98351.66;;;10.60;nan
9831;BME280;4954;48.476;8.168;2024-02-16T07:56:26;98352.53;;;10.65;nan
9831;BME280;4954;48.476;8.168;2024-02-16T07:58:53;98348.44;;;10.85;nan
9831;BME280;4954;48.476;8.168;2024-02-16T08:01:20;98349.38;;;10.98;nan
9831;BME280;4954;48.476;8.168;2024-02-16T08:03:58;98356.22;;;11.06;nan
9831;BME280;4954;48.476;8.168;2024-02-16T08:06:31;98359.66;;;11.14;nan
9831;BME280;4954;48.476;8.168;2024-02-16T08:09:02;98345.31;;;11.31;nan
9831;BME280;4954;48.476;8.168;2024-02-16T08:11:30;98350.47;;;11.40;nan
9831;BME280;4954;48.476;8.168;2024-02-16T08:13:57;98359.00;;;11.47;nan
9831;BME280;4954;48.476;8.168;2024-02-16T08:16:34;98355.63;;;11.57;nan
9831;BME280;4954;48.476;8.168;2024-02-16T08:19:01;98359.97;;;11.68;nan
9831;BME280;4954;48.476;8.168;2024-02-16T08:21:28;98365.09;;;11.76;nan
9831;BME280;4954;48.476;8.168;2024-02-16T08:24:02;98356.63;;;11.84;nan
9831;BME280;4954;48.476;8.168;2024-02-16T08:26:34;98354.94;;;11.97;nan
9831;BME280;4954;48.476;8.168;2024-02-16T08:29:01;98368.56;;;12.03;nan
9831;BME280;4954;48.476;8.168;2024-02-16T08:31:27;98365.16;;;11.97;nan
9831;BME280;4954;48.476;8.168;2024-02-16T08:33:54;98371.97;;;12.05;nan
9831;BME280;4954;48.476;8.168;2024-02-16T08:36:21;98381.34;;;12.17;nan
9831;BME280;4954;48.476;8.168;2024-02-16T08:38:56;98375.44;;;12.22;nan
9831;BME280;4954;48.476;8.168;2024-02-16T08:41:36;98380.53;;;12.22;nan
9831;BME280;4954;48.476;8.168;2024-02-16T08:44:08;98389.03;;;12.33;nan
9831;BME280;4954;48.476;8.168;2024-02-16T08:46:38;98389.06;;;12.42;nan
9831;BME280;4954;48.476;8.168;2024-02-16T08:49:10;98392.47;;;12.41;nan
9831;BME280;4954;48.476;8.168;2024-02-16T08:51:51;98394.16;;;12.60;nan
9831;BME280;4954;48.476;8.168;2024-02-16T08:54:18;98387.38;;;12.74;nan
9831;BME280;4954;48.476;8.168;2024-02-16T08:56:55;98390.78;;;12.88;nan
9831;BME280;4954;48.476;8.168;2024-02-16T08:59:25;98386.56;;;13.05;nan
9831;BME280;4954;48.476;8.168;2024-02-16T09:01:52;98400.97;;;13.24;nan
9831;BME280;4954;48.476;8.168;2024-02-16T09:04:22;98393.28;;;13.42;nan
9831;BME280;4954;48.476;8.168;2024-02-16T09:06:50;98400.91;;;13.57;nan
9831;BME280;4954;48.476;8.168;2024-02-16T09:09:20;98399.19;;;13.62;nan
9831;BME280;4954;48.476;8.168;2024-02-16T09:11:52;98403.38;;;13.80;nan
9831;BME280;4954;48.476;8.168;2024-02-16T09:14:52;98420.41;;;13.90;nan
9831;BME280;4954;48.476;8.168;2024-02-16T09:17:31;98417.81;;;14.00;nan
9831;BME280;4954;48.476;8.168;2024-02-16T09:20:01;98410.06;;;14.14;nan
9831;BME280;4954;48.476;8.168;2024-02-16T09:22:40;98414.31;;;14.25;nan
9831;BME280;4954;48.476;8.168;2024-02-16T09:25:12;98420.19;;;14.41;nan
9831;BME280;4954;48.476;8.168;2024-02-16T09:27:43;98427.84;;;14.45;nan
9831;BME280;4954;48.476;8.168;2024-02-16T09:30:14;98426.88;;;14.61;nan
9831;BME280;4954;48.476;8.168;2024-02-16T09:32:41;98430.19;;;14.74;nan
9831;BME280;4954;48.476;8.168;2024-02-16T09:35:08;98429.19;;;14.94;nan
9831;BME280;4954;48.476;8.168;2024-02-16T09:37:35;98432.53;;;15.04;nan
9831;BME280;4954;48.476;8.168;2024-02-16T09:40:05;98439.25;;;15.18;nan
9831;BME280;4954;48.476;8.168;2024-02-16T09:42:47;98437.38;;;15.38;nan
9831;BME280;4954;48.476;8.168;2024-02-16T09:45:15;98432.91;;;15.58;nan
9831;BME280;4954;48.476;8.168;2024-02-16T09:47:50;98436.97;;;15.79;nan
9831;BME280;4954;48.476;8.168;2024-02-16T09:50:26;98440.28;;;15.85;nan
9831;BME280;4954;48.476;8.168;2024-02-16T09:52:56;98438.31;;;16.07;nan
9831;BME280;4954;48.476;8.168;2024-02-16T09:55:25;98433.78;;;16.27;nan
9831;BME280;4954;48.476;8.168;2024-02-16T09:58:03;98437.22;;;16.27;nan
9831;BME280;4954;48.476;8.168;2024-02-16T10:00:31;98450.44;;;16.62;nan
9831;BME280;4954;48.476;8.168;2024-02-16T10:03:00;98447.25;;;17.03;nan
9831;BME280;4954;48.476;8.168;2024-02-16T10:05:27;98451.88;;;17.34;nan
9831;BME280;4954;48.476;8.168;2024-02-16T10:07:57;98449.50;;;17.22;nan
9831;BME280;4954;48.476;8.168;2024-02-16T10:11:06;98465.00;;;17.19;nan
9831;BME280;4954;48.476;8.168;2024-02-16T10:13:37;98457.69;;;17.47;nan
9831;BME280;4954;48.476;8.168;2024-02-16T10:16:06;98465.84;;;17.70;nan
9831;BME280;4954;48.476;8.168;2024-02-16T10:18:34;98466.44;;;17.82;nan
9831;BME280;4954;48.476;8.168;2024-02-16T10:21:02;98459.56;;;17.84;nan
9831;BME280;4954;48.476;8.168;2024-02-16T10:24:10;98473.53;;;18.15;nan
9831;BME280;4954;48.476;8.168;2024-02-16T10:26:40;98468.06;;;18.33;nan
9831;BME280;4954;48.476;8.168;2024-02-16T10:29:10;98471.19;;;18.47;nan
9831;BME280;4954;48.476;8.168;2024-02-16T10:31:39;98472.97;;;18.44;nan
9831;BME280;4954;48.476;8.168;2024-02-16T10:34:09;98477.19;;;18.46;nan
9831;BME280;4954;48.476;8.168;2024-02-16T10:36:38;98477.72;;;18.62;nan
9831;BME280;4954;48.476;8.168;2024-02-16T10:39:18;98482.84;;;18.65;nan
9831;BME280;4954;48.476;8.168;2024-02-16T10:41:51;98484.19;;;18.81;nan
9831;BME280;4954;48.476;8.168;2024-02-16T10:44:22;98488.03;;;19.00;nan
9831;BME280;4954;48.476;8.168;2024-02-16T10:46:59;98492.94;;;19.10;nan
9831;BME280;4954;48.476;8.168;2024-02-16T10:49:30;98485.38;;;19.03;nan
9831;BME280;4954;48.476;8.168;2024-02-16T10:51:57;98496.13;;;19.23;nan
9831;BME280;4954;48.476;8.168;2024-02-16T10:54:30;98497.59;;;19.33;nan
9831;BME280;4954;48.476;8.168;2024-02-16T10:57:00;98493.06;;;19.42;nan
9831;BME280;4954;48.476;8.168;2024-02-16T10:59:37;98498.03;;;19.50;nan
9831;BME280;4954;48.476;8.168;2024-02-16T11:02:07;98491.22;;;19.47;nan
9831;BME280;4954;48.476;8.168;2024-02-16T11:04:38;98495.09;;;19.63;nan
9831;BME280;4954;48.476;8.168;2024-02-16T11:07:11;98489.63;;;19.75;nan
9831;BME280;4954;48.476;8.168;2024-02-16T11:12:55;98485.88;;;19.87;nan
9831;BME280;4954;48.476;8.168;2024-02-16T11:15:43;98498.53;;;20.28;nan
9831;BME280;4954;48.476;8.168;2024-02-16T11:18:22;98484.00;;;20.53;nan
9831;BME280;4954;48.476;8.168;2024-02-16T11:20:50;98491.53;;;20.31;nan
9831;BME280;4954;48.476;8.168;2024-02-16T11:23:26;98488.97;;;19.99;nan
9831;BME280;4954;48.476;8.168;2024-02-16T11:26:17;98495.91;;;19.65;nan
9831;BME280;4954;48.476;8.168;2024-02-16T11:28:45;98491.34;;;19.43;nan
9831;BME280;4954;48.476;8.168;2024-02-16T11:31:14;98488.88;;;19.00;nan
9831;BME280;4954;48.476;8.168;2024-02-16T11:33:44;98484.31;;;18.76;nan
9831;BME280;4954;48.476;8.168;2024-02-16T11:36:11;98493.13;;;18.66;nan
9831;BME280;4954;48.476;8.168;2024-02-16T11:38:39;98497.75;;;18.49;nan
9831;BME280;4954;48.476;8.168;2024-02-16T11:41:07;98493.16;;;18.22;nan
9831;BME280;4954;48.476;8.168;2024-02-16T11:43:34;98498.50;;;18.12;nan
9831;BME280;4954;48.476;8.168;2024-02-16T11:46:11;98495.94;;;17.66;nan
9831;BME280;4954;48.476;8.168;2024-02-16T11:48:40;98501.28;;;17.56;nan
9831;BME280;4954;48.476;8.168;2024-02-16T11:51:07;98506.63;;;17.42;nan
9831;BME280;4954;48.476;8.168;2024-02-16T11:53:33;98499.88;;;17.34;nan
9831;BME280;4954;48.476;8.168;2024-02-16T11:56:00;98498.19;;;17.34;nan
9831;BME280;4954;48.476;8.168;2024-02-16T11:58:27;98504.63;;;17.06;nan
9831;BME280;4954;48.476;8.168;2024-02-16T12:00:56;98505.59;;;16.99;nan
9831;BME280;4954;48.476;8.168;2024-02-16T12:03:25;98511.56;;;17.01;nan
9831;BME280;4954;48.476;8.168;2024-02-16T12:05:55;98502.19;;;16.96;nan
9831;BME280;4954;48.476;8.168;2024-02-16T12:08:31;98508.28;;;16.92;nan
9831;BME280;4954;48.476;8.168;2024-02-16T12:10:59;98515.91;;;16.96;nan
9831;BME280;4954;48.476;8.168;2024-02-16T12:13:28;98508.06;;;17.05;nan
9831;BME280;4954;48.476;8.168;2024-02-16T12:15:55;98509.00;;;17.00;nan
9831;BME280;4954;48.476;8.168;2024-02-16T12:18:23;98522.75;;;16.96;nan
9831;BME280;4954;48.476;8.168;2024-02-16T12:21:01;98512.69;;;16.82;nan
9831;BME280;4954;48.476;8.168;2024-02-16T12:23:30;98519.59;;;16.80;nan
9831;BME280;4954;48.476;8.168;2024-02-16T12:25:58;98519.47;;;16.89;nan
9831;BME280;4954;48.476;8.168;2024-02-16T12:28:26;98517.06;;;16.76;nan
9831;BME280;4954;48.476;8.168;2024-02-16T12:30:54;98522.19;;;16.77;nan
9831;BME280;4954;48.476;8.168;2024-02-16T12:33:22;98519.78;;;16.65;nan
9831;BME280;4954;48.476;8.168;2024-02-16T12:35:52;98529.22;;;16.62;nan
9831;BME280;4954;48.476;8.168;2024-02-16T12:38:20;98526.75;;;16.56;nan
9831;BME280;4954;48.476;8.168;2024-02-16T12:40:47;98535.34;;;16.53;nan
9831;BME280;4954;48.476;8.168;2024-02-16T12:43:14;98532.88;;;16.46;nan
9831;BME280;4954;48.476;8.168;2024-02-16T12:45:41;98533.88;;;16.33;nan
9831;BME280;4954;48.476;8.168;2024-02-16T12:48:09;98528.69;;;16.34;nan
9831;BME280;4954;48.476;8.168;2024-02-16T12:50:38;98532.97;;;16.35;nan
9831;BME280;4954;48.476;8.168;2024-02-16T12:53:07;98527.84;;;16.34;nan
9831;BME280;4954;48.476;8.168;2024-02-16T12:55:35;98533.81;;;16.34;nan
9831;BME280;4954;48.476;8.168;2024-02-16T12:58:03;98525.25;;;16.37;nan
9831;BME280;4954;48.476;8.168;2024-02-16T13:00:30;98538.06;;;16.38;nan
9831;BME280;4954;48.476;8.168;2024-02-16T13:02:57;98530.53;;;16.25;nan
9831;BME280;4954;48.476;8.168;2024-02-16T13:05:24;98535.72;;;16.20;nan
9831;BME280;4954;48.476;8.168;2024-02-16T13:07:51;98541.75;;;16.16;nan
9831;BME280;4954;48.476;8.168;2024-02-16T13:10:18;98544.41;;;16.07;nan
9831;BME280;4954;48.476;8.168;2024-02-16T13:12:47;98534.19;;;16.04;nan
9831;BME280;4954;48.476;8.168;2024-02-16T13:15:14;98535.91;;;16.04;nan
9831;BME280;4954;48.476;8.168;2024-02-16T13:17:41;98540.19;;;16.02;nan
9831;BME280;4954;48.476;8.168;2024-02-16T13:20:08;98549.66;;;15.95;nan
9831;BME280;4954;48.476;8.168;2024-02-16T13:22:36;98544.53;;;15.95;nan
9831;BME280;4954;48.476;8.168;2024-02-16T13:25:03;98545.41;;;15.94;nan
9831;BME280;4954;48.476;8.168;2024-02-16T13:27:31;98541.16;;;15.92;nan
9831;BME280;4954;48.476;8.168;2024-02-16T13:29:59;98536.00;;;15.96;nan
9831;BME280;4954;48.476;8.168;2024-02-16T13:32:27;98537.72;;;15.94;nan
9831;BME280;4954;48.476;8.168;2024-02-16T13:34:55;98542.91;;;15.85;nan
9831;BME280;4954;48.476;8.168;2024-02-16T13:37:23;98539.50;;;15.86;nan
9831;BME280;4954;48.476;8.168;2024-02-16T13:39:51;98543.78;;;15.87;nan
9831;BME280;4954;48.476;8.168;2024-02-16T13:42:18;98536.09;;;15.86;nan
9831;BME280;4954;48.476;8.168;2024-02-16T13:44:45;98541.22;;;15.84;nan
9831;BME280;4954;48.476;8.168;2024-02-16T13:47:14;98546.38;;;15.83;nan
9831;BME280;4954;48.476;8.168;2024-02-16T13:49:41;98548.03;;;15.87;nan
9831;BME280;4954;48.476;8.168;2024-02-16T13:52:09;98540.34;;;15.90;nan
9831;BME280;4954;48.476;8.168;2024-02-16T13:54:36;98537.78;;;15.88;nan
9831;BME280;4954;48.476;8.168;2024-02-16T13:57:03;98548.91;;;15.87;nan
9831;BME280;4954;48.476;8.168;2024-02-16T13:59:31;98541.16;;;15.90;nan
9831;BME280;4954;48.476;8.168;2024-02-16T14:01:58;98548.03;;;15.91;nan
9831;BME280;4954;48.476;8.168;2024-02-16T14:04:28;98549.63;;;16.01;nan
9831;BME280;4954;48.476;8.168;2024-02-16T14:06:59;98553.00;;;16.03;nan
9831;BME280;4954;48.476;8.168;2024-02-16T14:09:26;98550.44;;;16.06;nan
9831;BME280;4954;48.476;8.168;2024-02-16T14:11:53;98558.97;;;16.07;nan